createdAt,value
2022-08-04T00:00:39.405Z,17
2022-08-04T00:04:21.767Z,17
2022-08-04T00:08:04.134Z,15
2022-08-04T00:10:32.409Z,14
2022-08-04T00:13:00.613Z,16
2022-08-04T00:15:28.899Z,14
2022-08-04T00:17:57.134Z,14
2022-08-04T00:21:39.488Z,15
2022-08-04T00:24:36.569Z,16
2022-08-04T00:27:41.887Z,13
2022-08-04T00:30:47.230Z,17
2022-08-04T00:33:52.511Z,17
2022-08-04T00:36:57.817Z,14
2022-08-04T00:40:40.243Z,15
2022-08-04T00:43:45.553Z,14
2022-08-04T00:46:50.818Z,17
2022-08-04T00:49:56.273Z,16
2022-08-04T00:52:31.216Z,16
2022-08-04T00:54:52.638Z,14
2022-08-04T00:58:35.018Z,14
2022-08-04T01:01:40.344Z,18
2022-08-04T01:06:36.817Z,15
2022-08-04T01:09:42.147Z,13
2022-08-04T01:12:47.441Z,17
2022-08-04T01:15:53.954Z,16
2022-08-04T01:18:58.043Z,18
2022-08-04T01:22:32.248Z,15
2022-08-04T01:25:38.554Z,15
2022-08-04T01:28:43.076Z,14
2022-08-04T01:31:48.188Z,14
2022-08-04T01:34:53.480Z,17
2022-08-04T01:38:35.865Z,16
2022-08-04T01:41:41.168Z,14
2022-08-04T01:44:46.485Z,19
2022-08-04T01:47:51.807Z,17
2022-08-04T01:50:57.127Z,16
2022-08-04T01:54:39.479Z,17
2022-08-04T01:57:44.763Z,18
2022-08-04T02:00:53.260Z,16
2022-08-04T02:04:19.092Z,19
2022-08-04T02:07:37.780Z,16
2022-08-04T02:10:43.110Z,17
2022-08-04T02:13:48.393Z,13
2022-08-04T02:16:53.714Z,17
2022-08-04T02:20:36.084Z,17
2022-08-04T02:23:04.328Z,15
2022-08-04T02:26:38.564Z,15
2022-08-04T02:29:43.825Z,17
2022-08-04T02:32:49.125Z,16
2022-08-04T02:35:54.438Z,18
2022-08-04T02:39:48.067Z,16
2022-08-04T02:42:42.109Z,18
2022-08-04T02:45:47.452Z,18
2022-08-04T02:48:52.728Z,17
2022-08-04T02:52:35.107Z,14
2022-08-04T02:55:40.446Z,18
2022-08-04T02:58:45.774Z,16
2022-08-04T03:01:56.632Z,17
2022-08-04T03:04:56.398Z,19
2022-08-04T03:08:38.750Z,23
2022-08-04T03:11:44.063Z,18
2022-08-04T03:14:49.330Z,14
2022-08-04T03:17:54.710Z,18
2022-08-04T03:21:37.053Z,17
2022-08-04T03:25:54.665Z,20
2022-08-04T03:28:53.601Z,19
2022-08-04T03:32:35.993Z,18
2022-08-04T03:35:41.262Z,18
2022-08-04T03:38:51.427Z,22
2022-08-04T03:41:59.996Z,17
2022-08-04T03:44:57.217Z,21
2022-08-04T03:48:39.575Z,21
2022-08-04T03:51:44.873Z,20
2022-08-04T03:54:50.221Z,21
2022-08-04T03:57:55.522Z,17
2022-08-04T04:01:57.870Z,18
2022-08-04T04:04:43.148Z,20
2022-08-04T04:07:48.843Z,18
2022-08-04T04:10:53.807Z,24
2022-08-04T04:14:36.190Z,18
2022-08-04T04:17:41.505Z,17
2022-08-04T04:20:46.838Z,18
2022-08-04T04:23:43.921Z,19
2022-08-04T04:26:49.281Z,19
2022-08-04T04:29:54.547Z,21
2022-08-04T04:33:36.925Z,19
2022-08-04T04:36:42.230Z,22
2022-08-04T04:39:47.520Z,20
2022-08-04T04:42:52.850Z,20
2022-08-04T04:45:58.190Z,19
2022-08-04T04:49:40.508Z,19
2022-08-04T04:52:45.836Z,21
2022-08-04T04:55:51.153Z,22
2022-08-04T04:58:56.473Z,19
2022-08-04T05:02:38.822Z,21
2022-08-04T05:05:44.121Z,20
2022-08-04T05:08:53.806Z,23
2022-08-04T05:11:55.058Z,19
2022-08-04T05:15:37.145Z,22
2022-08-04T05:18:42.413Z,22
2022-08-04T05:21:47.743Z,23
2022-08-04T05:24:44.858Z,20
2022-08-04T05:27:50.187Z,19
2022-08-04T05:30:55.528Z,23
2022-08-04T05:34:37.877Z,23
2022-08-04T05:37:43.202Z,22
2022-08-04T05:40:48.481Z,22
2022-08-04T05:43:53.808Z,22
2022-08-04T05:47:36.173Z,20
2022-08-04T05:50:41.474Z,22
2022-08-04T05:53:46.810Z,22
2022-08-04T05:56:52.108Z,21
2022-08-04T05:59:57.415Z,28
2022-08-04T06:03:39.769Z,21
2022-08-04T06:06:45.107Z,22
2022-08-04T06:09:50.382Z,22
2022-08-04T06:12:55.718Z,21
2022-08-04T06:16:38.063Z,24
2022-08-04T06:19:58.287Z,19
2022-08-04T06:22:48.712Z,23
2022-08-04T06:25:45.815Z,20
2022-08-04T06:28:51.128Z,21
2022-08-04T06:32:29.381Z,21
2022-08-04T06:35:38.827Z,24
2022-08-04T06:38:44.148Z,20
2022-08-04T06:41:53.555Z,22
2022-08-04T06:44:54.745Z,22
2022-08-04T06:48:37.102Z,22
2022-08-04T06:51:49.771Z,20
2022-08-04T06:54:47.746Z,19
2022-08-04T06:57:53.061Z,19
2022-08-04T07:01:35.514Z,20
2022-08-04T07:04:40.724Z,21
2022-08-04T07:07:56.709Z,20
2022-08-04T07:10:51.344Z,17
2022-08-04T07:13:56.650Z,17
2022-08-04T07:17:39.022Z,18
2022-08-04T07:20:44.396Z,17
2022-08-04T07:23:49.646Z,19
2022-08-04T07:26:46.780Z,20
2022-08-04T07:29:52.056Z,20
2022-08-04T07:32:57.413Z,19
2022-08-04T07:36:50.136Z,17
2022-08-04T07:39:47.715Z,19
2022-08-04T07:42:50.391Z,17
2022-08-04T07:45:55.726Z,20
2022-08-04T07:49:54.578Z,19
2022-08-04T07:52:43.377Z,18
2022-08-04T07:55:48.690Z,16
2022-08-04T07:58:54.067Z,20
2022-08-04T08:02:36.368Z,19
2022-08-04T08:05:54.945Z,19
2022-08-04T08:08:47.003Z,20
2022-08-04T08:12:34.591Z,15
2022-08-04T08:14:57.650Z,18
2022-08-04T08:18:40.025Z,18
2022-08-04T08:21:58.694Z,19
2022-08-04T08:27:05.796Z,18
2022-08-04T08:29:38.939Z,18
2022-08-04T08:32:44.232Z,17
2022-08-04T08:35:53.579Z,16
2022-08-04T08:38:54.901Z,16
2022-08-04T08:42:37.210Z,20
2022-08-04T08:45:42.535Z,19
2022-08-04T08:48:47.837Z,20
2022-08-04T08:51:53.134Z,20
2022-08-04T08:55:35.523Z,18
2022-08-04T08:58:40.846Z,18
2022-08-04T09:01:46.218Z,19
2022-08-04T09:04:51.452Z,16
2022-08-04T09:07:56.801Z,19
2022-08-04T09:11:39.136Z,18
2022-08-04T09:14:44.435Z,19
2022-08-04T09:17:49.748Z,22
2022-08-04T09:20:55.072Z,23
2022-08-04T09:24:37.452Z,29
2022-08-04T09:27:34.614Z,18
2022-08-04T09:30:39.887Z,15
2022-08-04T09:33:46.045Z,20
2022-08-04T09:36:50.478Z,19
2022-08-04T09:39:55.815Z,24
2022-08-04T09:43:57.384Z,19
2022-08-04T09:46:43.475Z,21
2022-08-04T09:49:48.803Z,17
2022-08-04T09:52:54.123Z,20
2022-08-04T09:56:36.513Z,17
2022-08-04T09:59:41.821Z,19
2022-08-04T10:02:47.142Z,17
2022-08-04T10:05:52.430Z,19
2022-08-04T10:08:57.704Z,20
2022-08-04T10:12:40.109Z,19
2022-08-04T10:15:45.407Z,18
2022-08-04T10:18:50.708Z,18
2022-08-04T10:21:59.225Z,17
2022-08-04T10:26:04.346Z,18
2022-08-04T10:28:35.500Z,18
2022-08-04T10:31:40.824Z,17
2022-08-04T10:34:46.142Z,19
2022-08-04T10:37:55.336Z,17
2022-08-04T10:40:56.765Z,20
2022-08-04T10:44:41.842Z,19
2022-08-04T10:47:44.467Z,15
2022-08-04T10:50:52.185Z,19
2022-08-04T10:53:55.053Z,19
2022-08-04T10:57:37.447Z,15
2022-08-04T11:00:42.760Z,16
2022-08-04T11:03:48.053Z,16
2022-08-04T11:06:53.364Z,17
2022-08-04T11:10:35.744Z,18
2022-08-04T11:13:45.127Z,15
2022-08-04T11:16:46.377Z,16
2022-08-04T11:19:54.472Z,16
2022-08-04T11:22:57.001Z,17
2022-08-04T11:26:39.337Z,16
2022-08-04T11:29:36.481Z,16
2022-08-04T11:32:41.770Z,16
2022-08-04T11:35:47.110Z,15
2022-08-04T11:38:52.533Z,15
2022-08-04T11:41:57.702Z,15
2022-08-04T11:45:40.052Z,15
2022-08-04T11:48:45.391Z,15
2022-08-04T11:51:50.696Z,12
2022-08-04T11:54:56.033Z,14
2022-08-04T11:58:38.395Z,12
2022-08-04T12:01:43.818Z,17
2022-08-04T12:04:48.994Z,17
2022-08-04T12:07:54.297Z,16
2022-08-04T12:11:36.720Z,14
2022-08-04T12:14:41.986Z,15
2022-08-04T12:17:52.860Z,19
2022-08-04T12:20:52.612Z,16
2022-08-04T12:24:00.909Z,13
2022-08-04T12:27:03.248Z,13
2022-08-04T12:30:56.440Z,15
2022-08-04T12:34:03.889Z,12
2022-08-04T12:36:48.045Z,15
2022-08-04T12:40:17.131Z,13
2022-08-04T12:43:35.734Z,12
2022-08-04T12:46:41.045Z,17
2022-08-04T12:49:46.647Z,13
2022-08-04T12:53:01.370Z,11
2022-08-04T12:56:01.304Z,12
2022-08-04T12:59:39.349Z,9
2022-08-04T13:02:44.748Z,11
2022-08-04T13:05:49.958Z,13
2022-08-04T13:08:55.308Z,11
2022-08-04T13:12:37.658Z,11
2022-08-04T13:15:46.857Z,13
2022-08-04T13:18:48.272Z,12
2022-08-04T13:22:02.379Z,13
2022-08-04T13:26:41.929Z,9
2022-08-04T13:28:33.072Z,10
2022-08-04T13:34:49.003Z,11
2022-08-04T13:37:49.038Z,10
2022-08-04T13:40:54.349Z,10
2022-08-04T13:44:36.687Z,10
2022-08-04T13:47:42.086Z,12
2022-08-04T13:50:47.319Z,15
2022-08-04T13:53:52.669Z,11
2022-08-04T13:56:57.929Z,11
2022-08-04T14:01:47.218Z,14
2022-08-04T14:03:53.278Z,12
2022-08-04T14:06:50.909Z,9
2022-08-04T14:10:03.271Z,12
2022-08-04T14:13:40.899Z,10
2022-08-04T14:16:43.927Z,10
2022-08-04T14:19:49.256Z,9
2022-08-04T14:22:54.535Z,10
2022-08-04T14:26:36.945Z,11
2022-08-04T14:29:34.028Z,10
2022-08-04T14:32:39.337Z,11
2022-08-04T14:35:50.626Z,11
2022-08-04T14:38:49.968Z,10
2022-08-04T14:41:55.287Z,9
2022-08-04T14:45:37.644Z,9
2022-08-04T14:48:44.443Z,10
2022-08-04T14:51:48.250Z,11
2022-08-04T14:54:53.592Z,11
2022-08-04T14:58:39.145Z,10
2022-08-04T15:01:41.300Z,11
2022-08-04T15:04:46.578Z,11
2022-08-04T15:07:51.907Z,11
2022-08-04T15:10:57.224Z,10
2022-08-04T15:14:39.586Z,12
2022-08-04T15:17:44.857Z,10
2022-08-04T15:20:50.187Z,11
2022-08-04T15:23:55.492Z,10
2022-08-04T15:27:37.910Z,10
2022-08-04T15:30:39.085Z,13
2022-08-04T15:33:44.391Z,12
2022-08-04T15:36:56.146Z,11
2022-08-04T15:39:54.997Z,10
2022-08-04T15:43:37.358Z,8
2022-08-04T15:46:44.734Z,11
2022-08-04T15:49:47.997Z,11
2022-08-04T15:53:00.812Z,10
2022-08-04T15:56:35.713Z,8
2022-08-04T15:59:41.012Z,8
2022-08-04T16:02:46.377Z,10
2022-08-04T16:05:51.620Z,8
2022-08-04T16:08:57.536Z,12
2022-08-04T16:12:53.604Z,10
2022-08-04T16:15:44.591Z,10
2022-08-04T16:18:49.945Z,13
2022-08-04T16:21:55.226Z,29
2022-08-04T16:25:37.719Z,13
2022-08-04T16:28:34.770Z,20
2022-08-04T16:31:40.101Z,13
2022-08-04T16:34:50.618Z,12
2022-08-04T16:37:50.662Z,13
2022-08-04T16:40:55.976Z,10
2022-08-04T16:45:10.598Z,10
2022-08-04T16:47:43.647Z,10
2022-08-04T16:50:48.951Z,10
2022-08-04T16:54:03.331Z,11
2022-08-04T16:57:38.755Z,11
2022-08-04T17:00:41.973Z,10
2022-08-04T17:03:47.953Z,11
2022-08-04T17:06:52.612Z,10
2022-08-04T17:09:57.914Z,10
2022-08-04T17:14:04.125Z,9
2022-08-04T17:16:45.591Z,9
2022-08-04T17:19:50.875Z,10
2022-08-04T17:22:56.215Z,11
2022-08-04T17:26:39.585Z,10
2022-08-04T17:30:51.411Z,11
2022-08-04T17:33:56.551Z,11
2022-08-04T17:37:38.691Z,12
2022-08-04T17:40:42.829Z,12
2022-08-04T17:44:02.027Z,13
2022-08-04T17:46:53.441Z,14
2022-08-04T17:50:36.269Z,12
2022-08-04T17:54:02.021Z,14
2022-08-04T17:56:51.945Z,13
2022-08-04T17:59:57.368Z,13
2022-08-04T18:02:57.104Z,14
2022-08-04T18:06:39.425Z,11
2022-08-04T18:09:57.576Z,11
2022-08-04T18:12:50.051Z,13
2022-08-04T18:15:55.337Z,12
2022-08-04T18:19:42.162Z,14
2022-08-04T18:22:43.014Z,12
2022-08-04T18:25:50.633Z,12
2022-08-04T18:28:53.669Z,11
2022-08-04T18:32:31.488Z,12
2022-08-04T18:34:56.145Z,12
2022-08-04T18:38:38.466Z,13
2022-08-04T18:42:00.970Z,11
2022-08-04T18:44:52.765Z,13
2022-08-04T18:47:58.301Z,13
2022-08-04T18:51:36.788Z,13
2022-08-04T18:54:42.171Z,12
2022-08-04T18:57:58.791Z,11
2022-08-04T19:00:52.682Z,14
2022-08-04T19:03:58.150Z,13
2022-08-04T19:08:02.688Z,12
2022-08-04T19:10:45.733Z,14
2022-08-04T19:13:54.911Z,14
2022-08-04T19:16:56.308Z,14
2022-08-04T19:20:39.496Z,10
2022-08-04T19:24:10.007Z,15
2022-08-04T19:26:49.321Z,11
2022-08-04T19:29:46.430Z,12
2022-08-04T19:32:51.741Z,14
2022-08-04T19:35:57.040Z,12
2022-08-04T19:39:40.359Z,12
2022-08-04T19:42:44.707Z,12
2022-08-04T19:45:50.023Z,11
2022-08-04T19:48:59.049Z,12
2022-08-04T19:52:37.714Z,17
2022-08-04T19:55:43.052Z,13
2022-08-04T19:58:48.391Z,14
2022-08-04T20:01:53.688Z,14
2022-08-04T20:05:52.981Z,11
2022-08-04T20:08:48.177Z,20
2022-08-04T20:11:46.648Z,12
2022-08-04T20:14:51.973Z,13
2022-08-04T20:18:08.613Z,13
2022-08-04T20:21:54.494Z,15
2022-08-04T20:25:18.183Z,14
2022-08-04T20:27:51.856Z,12
2022-08-04T20:30:47.385Z,13
2022-08-04T20:33:53.619Z,12
2022-08-04T20:36:58.041Z,12
2022-08-04T20:40:40.372Z,12
2022-08-04T20:43:46.700Z,13
2022-08-04T20:46:50.972Z,13
2022-08-04T20:49:56.289Z,13
2022-08-04T20:53:46.953Z,14
2022-08-04T20:56:45.013Z,12
2022-08-04T21:00:26.679Z,13
2022-08-04T21:02:54.616Z,15
2022-08-04T21:06:36.978Z,13
2022-08-04T21:10:56.689Z,12
2022-08-04T21:14:38.830Z,11
2022-08-04T21:17:57.087Z,12
2022-08-04T21:20:49.417Z,16
2022-08-04T21:23:54.743Z,15
2022-08-04T21:27:39.393Z,16
2022-08-04T21:30:48.947Z,14
2022-08-04T21:33:50.329Z,16
2022-08-04T21:36:44.796Z,14
2022-08-04T21:39:59.201Z,14
2022-08-04T21:42:55.483Z,14
2022-08-04T21:46:42.533Z,13
2022-08-04T21:49:56.147Z,14
2022-08-04T21:52:48.449Z,13
2022-08-04T21:56:05.235Z,13
2022-08-04T21:59:45.131Z,14
2022-08-04T22:02:41.451Z,15
2022-08-04T22:05:46.742Z,16
2022-08-04T22:08:52.109Z,15
2022-08-04T22:11:57.381Z,14
2022-08-04T22:16:04.201Z,14
2022-08-04T22:18:45.032Z,15
2022-08-04T22:21:50.373Z,15
2022-08-04T22:24:58.371Z,14
2022-08-04T22:28:38.043Z,15
2022-08-04T22:32:50.399Z,15
2022-08-04T22:35:54.604Z,19
2022-08-04T22:39:37.031Z,15
2022-08-04T22:42:42.284Z,13
2022-08-04T22:45:47.600Z,15
2022-08-04T22:48:52.881Z,14
2022-08-04T22:51:58.210Z,15
2022-08-04T22:55:57.684Z,16
2022-08-04T22:58:51.157Z,14
2022-08-04T23:01:58.228Z,14
2022-08-04T23:04:56.516Z,14
2022-08-04T23:08:38.921Z,12
2022-08-04T23:11:44.260Z,15
2022-08-04T23:14:49.520Z,16
2022-08-04T23:17:54.801Z,14
2022-08-04T23:21:40.807Z,17
2022-08-04T23:24:42.507Z,22
2022-08-04T23:27:48.415Z,16
2022-08-04T23:32:36.102Z,19
2022-08-04T23:35:41.404Z,17
2022-08-04T23:38:46.754Z,17
2022-08-04T23:41:54.831Z,23
2022-08-04T23:44:17.446Z,19
2022-08-04T23:46:48.565Z,19
2022-08-04T23:49:53.837Z,17
2022-08-04T23:53:36.206Z,17
2022-08-04T23:56:41.519Z,15
2022-08-04T23:59:49.165Z,19
